Art, Indiana
Current Conditions -  °F | °C
As of 9:53 PM on Saturday 25 Oct 2014 (Local Time) from KHUF Reporting Station
Clear Clear  
Wind Chill: 64°   Ceiling: Unl
Heat Index: 64°   Visibility: 10mi
Dew Point: 45°   Wind: 6mph
Humidity: 50%   Direction: 300°WNW
Pressure: 29.97"   Gusts: NA
Location:  39.5158°N, 87.1262°W
Report Text: KHUF 260153Z 30005KT 10SM CLR 18/07 A2997 RMK AO2 SLP147 T01780072
Loading
Personal Weather Stations






























Interactive Weather Map
Tropical Storm Tracking
New forecast layout! Learn more

10-Day Weather Forecast

Advertisements
Track Severe Weather on mobile